createdAt,value
2022-09-11T00:00:15.025Z,2.10
2022-09-11T00:02:46.545Z,2.35
2022-09-11T00:05:16.253Z,2.40
2022-09-11T00:07:50.292Z,1.90
2022-09-11T00:10:18.986Z,2.40
2022-09-11T00:12:49.194Z,2.35
2022-09-11T00:15:17.806Z,2.10
2022-09-11T00:17:45.454Z,2.25
2022-09-11T00:20:15.665Z,2.58
2022-09-11T00:22:51.004Z,2.67
2022-09-11T00:25:20.268Z,2.38
2022-09-11T00:27:54.156Z,2.58
2022-09-11T00:30:23.798Z,2.30
2022-09-11T00:32:55.321Z,2.75
2022-09-11T00:35:24.784Z,3.53
2022-09-11T00:37:56.365Z,2.42
2022-09-11T00:40:26.302Z,2.40
2022-09-11T00:42:58.622Z,1.73
2022-09-11T00:45:31.139Z,2.20
2022-09-11T00:48:15.099Z,1.90
2022-09-11T00:50:49.139Z,2.13
2022-09-11T00:53:22.989Z,2.33
2022-09-11T00:55:59.742Z,2.60
2022-09-11T00:58:37.799Z,2.28
2022-09-11T01:01:09.500Z,2.25
2022-09-11T01:03:39.667Z,2.13
2022-09-11T01:06:10.666Z,2.70
2022-09-11T01:08:41.585Z,2.30
2022-09-11T01:11:45.158Z,2.45
2022-09-11T01:14:49.404Z,2.03
2022-09-11T01:17:41.702Z,2.28
2022-09-11T01:20:34.138Z,2.08
2022-09-11T01:23:31.893Z,2.40
2022-09-11T01:26:41.695Z,2.08
2022-09-11T01:29:42.539Z,2.25
2022-09-11T01:32:32.928Z,2.08
2022-09-11T01:35:12.585Z,2.42
2022-09-11T01:38:17.738Z,2.30
2022-09-11T01:41:04.625Z,2.10
2022-09-11T01:44:06.356Z,2.20
2022-09-11T01:46:52.162Z,2.60
2022-09-11T01:49:57.464Z,2.40
2022-09-11T01:52:38.442Z,2.38
2022-09-11T01:55:42.119Z,2.00
2022-09-11T01:58:19.927Z,1.90
2022-09-11T02:00:55.903Z,2.17
2022-09-11T02:03:49.378Z,2.45
2022-09-11T02:06:37.972Z,2.30
2022-09-11T02:09:17.160Z,2.60
2022-09-11T02:11:51.529Z,2.22
2022-09-11T02:14:40.837Z,2.42
2022-09-11T02:17:28.102Z,2.63
2022-09-11T02:20:02.337Z,2.33
2022-09-11T02:22:33.972Z,2.30
2022-09-11T02:25:06.075Z,2.47
2022-09-11T02:27:38.276Z,2.28
2022-09-11T02:30:14.341Z,2.38
2022-09-11T02:32:46.808Z,2.75
2022-09-11T02:35:18.680Z,2.85
2022-09-11T02:38:14.110Z,2.33
2022-09-11T02:41:07.609Z,1.90
2022-09-11T02:43:53.459Z,2.50
2022-09-11T02:47:05.830Z,2.10
2022-09-11T02:50:07.103Z,2.15
2022-09-11T02:53:13.313Z,2.30
2022-09-11T02:56:11.006Z,2.78
2022-09-11T02:59:03.967Z,2.88
2022-09-11T03:01:53.439Z,2.42
2022-09-11T03:04:26.486Z,2.33
2022-09-11T03:07:05.793Z,2.35
2022-09-11T03:09:36.913Z,2.92
2022-09-11T03:12:12.818Z,2.70
2022-09-11T03:14:42.266Z,2.80
2022-09-11T03:17:13.810Z,2.50
2022-09-11T03:19:45.121Z,2.75
2022-09-11T03:22:17.782Z,2.55
2022-09-11T03:24:45.386Z,2.90
2022-09-11T03:27:13.947Z,2.92
2022-09-11T03:29:47.911Z,2.92
2022-09-11T03:32:20.491Z,2.65
2022-09-11T03:34:53.100Z,2.17
2022-09-11T03:37:27.978Z,2.50
2022-09-11T03:40:02.992Z,2.00
2022-09-11T03:42:33.912Z,2.33
2022-09-11T03:45:01.695Z,2.35
2022-09-11T03:47:38.749Z,2.10
2022-09-11T03:50:11.586Z,2.17
2022-09-11T03:52:42.220Z,1.77
2022-09-11T03:55:12.017Z,1.30
2022-09-11T03:57:44.670Z,1.02
2022-09-11T04:00:15.153Z,0.90
2022-09-11T04:02:52.038Z,0.75
2022-09-11T04:05:34.297Z,0.80
2022-09-11T04:08:05.473Z,0.77
2022-09-11T04:10:37.382Z,0.60
2022-09-11T04:13:08.014Z,0.82
2022-09-11T04:15:40.400Z,0.80
2022-09-11T04:18:09.129Z,0.70
2022-09-11T04:20:39.755Z,1.10
2022-09-11T04:23:09.426Z,0.98
2022-09-11T04:25:41.310Z,1.20
2022-09-11T04:28:12.664Z,1.33
2022-09-11T04:30:42.249Z,1.02
2022-09-11T04:33:13.683Z,1.50
2022-09-11T04:35:45.350Z,1.20
2022-09-11T04:38:16.545Z,1.15
2022-09-11T04:40:46.512Z,1.20
2022-09-11T04:43:18.507Z,1.33
2022-09-11T04:45:49.300Z,1.48
2022-09-11T04:48:20.073Z,1.10
2022-09-11T04:50:51.504Z,1.20
2022-09-11T04:53:28.141Z,1.13
2022-09-11T04:56:23.961Z,1.42
2022-09-11T04:58:59.348Z,1.10
2022-09-11T05:01:44.114Z,1.15
2022-09-11T05:04:14.024Z,1.15
2022-09-11T05:06:48.613Z,0.95
2022-09-11T05:09:22.776Z,1.63
2022-09-11T05:11:52.343Z,1.98
2022-09-11T05:14:26.309Z,2.45
2022-09-11T05:16:57.585Z,2.42
2022-09-11T05:19:31.144Z,2.50
2022-09-11T05:22:07.392Z,2.50
2022-09-11T05:24:41.790Z,2.20
2022-09-11T05:27:12.901Z,2.22
2022-09-11T05:29:41.922Z,2.75
2022-09-11T05:32:15.329Z,2.88
2022-09-11T05:34:44.895Z,2.55
2022-09-11T05:37:19.186Z,2.42
2022-09-11T05:39:52.178Z,2.55
2022-09-11T05:42:23.150Z,2.78
2022-09-11T05:44:58.285Z,2.85
2022-09-11T05:47:33.168Z,2.42
2022-09-11T05:50:02.984Z,3.05
2022-09-11T05:52:35.200Z,2.08
2022-09-11T05:55:09.465Z,1.98
2022-09-11T05:57:42.730Z,2.78
2022-09-11T06:00:15.914Z,2.28
2022-09-11T06:02:51.689Z,2.30
2022-09-11T06:05:24.313Z,2.35
2022-09-11T06:07:53.066Z,2.40
2022-09-11T06:10:29.561Z,1.90
2022-09-11T06:12:57.772Z,2.50
2022-09-11T06:15:45.664Z,2.72
2022-09-11T06:18:18.029Z,2.20
2022-09-11T06:21:15.290Z,2.22
2022-09-11T06:23:52.524Z,2.75
2022-09-11T06:26:23.695Z,2.30
2022-09-11T06:28:55.781Z,2.08
2022-09-11T06:31:28.961Z,2.22
2022-09-11T06:33:57.764Z,1.55
2022-09-11T06:36:29.368Z,1.58
2022-09-11T06:39:03.009Z,1.20
2022-09-11T06:41:35.113Z,1.30
2022-09-11T06:44:10.793Z,1.45
2022-09-11T06:46:48.340Z,1.15
2022-09-11T06:49:22.190Z,1.15
2022-09-11T06:52:14.227Z,1.75
2022-09-11T06:54:52.465Z,1.30
2022-09-11T06:57:23.239Z,1.60
2022-09-11T07:02:31.144Z,1.25
2022-09-11T07:05:00.381Z,1.45
2022-09-11T07:07:30.483Z,1.60
2022-09-11T07:10:02.921Z,1.23
2022-09-11T07:12:32.540Z,1.92
2022-09-11T07:15:02.298Z,0.68
2022-09-11T07:17:31.553Z,0.50
2022-09-11T07:20:04.183Z,0.40
2022-09-11T07:22:37.491Z,0.50
2022-09-11T07:25:10.309Z,0.65
2022-09-11T07:27:46.200Z,0.60
2022-09-11T07:30:18.401Z,0.98
2022-09-11T07:32:52.333Z,0.90
2022-09-11T07:35:25.545Z,0.70
2022-09-11T07:37:58.576Z,0.45
2022-09-11T07:40:30.681Z,0.60
2022-09-11T07:43:03.797Z,0.60
2022-09-11T07:45:37.290Z,0.50
2022-09-11T07:48:09.876Z,0.45
2022-09-11T07:50:44.168Z,0.70
2022-09-11T07:53:15.627Z,0.47
2022-09-11T07:55:49.794Z,0.50
2022-09-11T07:58:19.997Z,0.40
2022-09-11T08:00:49.721Z,0.70
2022-09-11T08:03:23.220Z,0.50
2022-09-11T08:06:01.487Z,0.40
2022-09-11T08:08:30.792Z,0.50
2022-09-11T08:11:08.190Z,0.73
2022-09-11T08:13:41.848Z,0.50
2022-09-11T08:16:14.844Z,0.55
2022-09-11T08:18:45.263Z,0.40
2022-09-11T08:21:19.013Z,0.55
2022-09-11T08:23:51.951Z,0.63
2022-09-11T08:26:30.783Z,0.57
2022-09-11T08:29:05.937Z,0.63
2022-09-11T08:31:37.212Z,0.60
2022-09-11T08:34:06.640Z,0.60
2022-09-11T08:36:38.173Z,0.60
2022-09-11T08:39:13.420Z,0.70
2022-09-11T08:42:01.904Z,0.60
2022-09-11T08:44:56.306Z,0.60
2022-09-11T08:47:40.709Z,0.50
2022-09-11T08:50:31.803Z,0.70
2022-09-11T08:53:22.778Z,0.70
2022-09-11T08:56:03.537Z,0.60
2022-09-11T08:59:12.284Z,0.43
2022-09-11T09:02:32.011Z,0.60
2022-09-11T09:05:38.167Z,0.77
2022-09-11T09:08:41.108Z,0.77
2022-09-11T09:12:14.318Z,0.70
2022-09-11T09:15:03.292Z,0.93
2022-09-11T09:18:03.735Z,0.57
2022-09-11T09:20:42.801Z,0.88
2022-09-11T09:23:27.102Z,0.40
2022-09-11T09:25:57.338Z,0.45
2022-09-11T09:28:52.981Z,0.50
2022-09-11T09:31:31.003Z,0.82
2022-09-11T09:34:31.788Z,0.80
2022-09-11T09:37:30.885Z,0.75
2022-09-11T09:40:06.989Z,0.70
2022-09-11T09:42:47.810Z,0.82
2022-09-11T09:45:34.541Z,0.50
2022-09-11T09:50:38.765Z,0.50
2022-09-11T09:53:38.319Z,0.50
2022-09-11T09:56:09.032Z,0.50
2022-09-11T09:59:01.591Z,0.85
2022-09-11T10:01:55.491Z,0.70
2022-09-11T10:04:27.338Z,0.90
2022-09-11T10:07:06.418Z,0.50
2022-09-11T10:09:35.529Z,0.47
2022-09-11T10:12:13.038Z,0.52
2022-09-11T10:14:54.733Z,0.68
2022-09-11T10:17:38.325Z,0.63
2022-09-11T10:20:37.220Z,0.60
2022-09-11T10:23:32.592Z,0.60
2022-09-11T10:26:03.290Z,0.47
2022-09-11T10:28:37.180Z,0.43
2022-09-11T10:31:06.904Z,0.40
2022-09-11T10:33:43.182Z,0.52
2022-09-11T10:36:36.137Z,0.70
2022-09-11T10:39:06.143Z,1.30
2022-09-11T10:41:39.169Z,1.10
2022-09-11T10:44:21.388Z,1.10
2022-09-11T10:47:16.965Z,0.80
2022-09-11T10:49:47.979Z,0.65
2022-09-11T10:52:15.416Z,0.70
2022-09-11T10:55:20.294Z,0.70
2022-09-11T10:58:05.044Z,0.80
2022-09-11T11:00:38.418Z,0.88
2022-09-11T11:03:11.870Z,0.85
2022-09-11T11:05:57.621Z,1.27
2022-09-11T11:08:53.455Z,0.80
2022-09-11T11:12:03.607Z,0.80
2022-09-11T11:15:09.479Z,0.98
2022-09-11T11:17:58.140Z,1.20
2022-09-11T11:21:06.686Z,0.70
2022-09-11T11:23:59.271Z,1.08
2022-09-11T11:27:13.398Z,1.40
2022-09-11T11:29:51.870Z,1.00
2022-09-11T11:32:58.926Z,1.20
2022-09-11T11:36:07.500Z,15.68
2022-09-11T11:38:38.031Z,2.00
2022-09-11T11:41:24.027Z,0.95
2022-09-11T11:43:56.076Z,1.33
2022-09-11T11:46:44.419Z,1.60
2022-09-11T11:49:23.883Z,1.40
2022-09-11T11:52:30.447Z,1.00
2022-09-11T11:55:23.151Z,0.90
2022-09-11T11:58:28.192Z,1.40
2022-09-11T12:01:05.020Z,2.00
2022-09-11T12:03:50.571Z,2.63
2022-09-11T12:06:20.389Z,9.30
2022-09-11T12:08:55.256Z,1.85
2022-09-11T12:11:35.432Z,2.95
2022-09-11T12:14:07.269Z,0.60
2022-09-11T12:16:41.233Z,2.00
2022-09-11T12:19:31.136Z,1.17
2022-09-11T12:22:48.150Z,0.77
2022-09-11T12:25:35.105Z,1.45
2022-09-11T12:28:24.369Z,2.75
2022-09-11T12:31:08.166Z,0.55
2022-09-11T12:33:53.071Z,0.50
2022-09-11T12:36:34.677Z,0.50
2022-09-11T12:39:37.300Z,0.50
2022-09-11T12:42:25.460Z,0.82
2022-09-11T12:45:00.875Z,1.20
2022-09-11T12:47:53.086Z,0.60
2022-09-11T12:50:28.631Z,0.70
2022-09-11T12:53:06.211Z,3.80
2022-09-11T12:56:06.605Z,4.85
2022-09-11T12:59:02.658Z,1.55
2022-09-11T13:01:49.537Z,1.17
2022-09-11T13:04:26.042Z,0.85
2022-09-11T13:07:20.320Z,0.60
2022-09-11T13:09:52.370Z,0.90
2022-09-11T13:12:42.964Z,4.03
2022-09-11T13:15:44.927Z,0.80
2022-09-11T13:18:48.387Z,1.02
2022-09-11T13:21:26.791Z,1.25
2022-09-11T13:24:02.633Z,1.08
2022-09-11T13:26:33.193Z,1.15
2022-09-11T13:29:06.133Z,1.23
2022-09-11T13:31:40.367Z,1.30
2022-09-11T13:34:19.950Z,0.90
2022-09-11T13:36:56.492Z,0.75
2022-09-11T13:39:32.456Z,2.70
2022-09-11T13:42:05.788Z,0.73
2022-09-11T13:45:03.304Z,0.80
2022-09-11T13:47:31.931Z,0.60
2022-09-11T13:50:20.913Z,0.50
2022-09-11T13:52:51.381Z,0.88
2022-09-11T13:55:27.167Z,0.65
2022-09-11T13:58:03.665Z,0.52
2022-09-11T14:00:53.381Z,0.60
2022-09-11T14:03:37.036Z,0.50
2022-09-11T14:06:18.454Z,0.40
2022-09-11T14:08:58.433Z,0.55
2022-09-11T14:11:40.068Z,0.40
2022-09-11T14:14:37.068Z,0.70
2022-09-11T14:17:06.423Z,0.60
2022-09-11T14:19:38.257Z,0.60
2022-09-11T14:22:29.031Z,0.77
2022-09-11T14:25:22.399Z,1.23
2022-09-11T14:27:56.396Z,1.30
2022-09-11T14:31:09.528Z,0.68
2022-09-11T14:33:41.336Z,0.40
2022-09-11T14:36:21.734Z,0.43
2022-09-11T14:38:50.934Z,0.40
2022-09-11T14:41:22.362Z,0.40
2022-09-11T14:43:52.837Z,1.00
2022-09-11T14:46:25.189Z,1.08
2022-09-11T14:48:58.735Z,1.00
2022-09-11T14:51:28.805Z,0.45
2022-09-11T14:53:59.970Z,0.40
2022-09-11T14:56:31.014Z,1.15
2022-09-11T14:59:00.360Z,0.30
2022-09-11T15:01:29.923Z,0.55
2022-09-11T15:04:02.415Z,0.40
2022-09-11T15:06:30.258Z,1.90
2022-09-11T15:09:01.738Z,0.30
2022-09-11T15:11:30.317Z,0.40
2022-09-11T15:14:15.976Z,0.55
2022-09-11T15:16:48.742Z,0.70
2022-09-11T15:19:20.162Z,0.50
2022-09-11T15:21:51.423Z,0.50
2022-09-11T15:24:23.444Z,0.47
2022-09-11T15:26:54.329Z,0.40
2022-09-11T15:29:31.346Z,0.70
2022-09-11T15:32:04.653Z,0.50
2022-09-11T15:34:37.078Z,0.50
2022-09-11T15:37:08.642Z,0.32
2022-09-11T15:39:44.779Z,0.40
2022-09-11T15:42:19.872Z,0.32
2022-09-11T15:44:54.305Z,0.50
2022-09-11T15:47:25.542Z,0.60
2022-09-11T15:49:53.833Z,0.65
2022-09-11T15:52:25.879Z,0.50
2022-09-11T15:54:55.070Z,0.30
2022-09-11T15:57:28.575Z,0.57
2022-09-11T15:59:59.353Z,0.80
2022-09-11T16:02:28.297Z,0.38
2022-09-11T16:07:42.013Z,0.45
2022-09-11T16:10:14.429Z,0.70
2022-09-11T16:12:43.476Z,0.57
2022-09-11T16:15:15.590Z,0.70
2022-09-11T16:17:47.611Z,0.50
2022-09-11T16:20:19.496Z,0.75
2022-09-11T16:22:48.065Z,1.02
2022-09-11T16:25:16.083Z,0.73
2022-09-11T16:27:51.633Z,0.90
2022-09-11T16:30:42.104Z,1.05
2022-09-11T16:33:14.151Z,0.50
2022-09-11T16:35:44.541Z,0.93
2022-09-11T16:38:16.378Z,0.70
2022-09-11T16:41:09.532Z,0.85
2022-09-11T16:43:42.452Z,1.75
2022-09-11T16:46:16.375Z,0.80
2022-09-11T16:48:53.244Z,1.00
2022-09-11T16:51:25.323Z,1.73
2022-09-11T16:53:56.797Z,0.80
2022-09-11T16:56:29.138Z,1.05
2022-09-11T16:59:02.162Z,1.00
2022-09-11T17:01:33.344Z,1.90
2022-09-11T17:04:05.468Z,4.18
2022-09-11T17:06:37.450Z,4.25
2022-09-11T17:09:08.183Z,3.40
2022-09-11T17:11:45.422Z,2.85
2022-09-11T17:14:19.165Z,6.10
2022-09-11T17:16:49.090Z,5.00
2022-09-11T17:19:22.885Z,3.80
2022-09-11T17:21:52.316Z,4.97
2022-09-11T17:24:33.481Z,5.80
2022-09-11T17:27:05.273Z,9.27
2022-09-11T17:29:35.553Z,4.57
2022-09-11T17:34:59.592Z,3.67
2022-09-11T17:37:31.305Z,5.07
2022-09-11T17:40:04.683Z,2.55
2022-09-11T17:42:36.045Z,2.38
2022-09-11T17:45:10.980Z,1.40
2022-09-11T17:47:44.599Z,3.45
2022-09-11T17:50:16.754Z,4.70
2022-09-11T17:52:49.933Z,8.68
2022-09-11T17:55:21.096Z,8.20
2022-09-11T17:57:53.936Z,8.43
2022-09-11T18:00:23.204Z,7.82
2022-09-11T18:02:54.648Z,11.18
2022-09-11T18:05:23.714Z,13.70
2022-09-11T18:07:53.429Z,10.60
2022-09-11T18:10:22.500Z,7.90
2022-09-11T18:12:54.509Z,3.50
2022-09-11T18:15:28.145Z,1.92
2022-09-11T18:17:59.650Z,3.80
2022-09-11T18:20:29.858Z,5.07
2022-09-11T18:22:59.746Z,4.20
2022-09-11T18:25:31.532Z,5.03
2022-09-11T18:28:01.648Z,4.05
2022-09-11T18:30:34.688Z,4.47
2022-09-11T18:33:10.242Z,7.43
2022-09-11T18:35:41.930Z,8.68
2022-09-11T18:38:12.705Z,7.68
2022-09-11T18:40:43.633Z,9.18
2022-09-11T18:43:15.894Z,9.65
2022-09-11T18:45:48.482Z,6.38
2022-09-11T18:48:19.869Z,4.53
2022-09-11T18:50:54.980Z,2.60
2022-09-11T18:53:32.489Z,1.98
2022-09-11T18:56:11.927Z,2.75
2022-09-11T18:58:45.725Z,4.90
2022-09-11T19:01:20.929Z,5.15
2022-09-11T19:03:56.227Z,4.03
2022-09-11T19:06:35.358Z,2.85
2022-09-11T19:09:16.654Z,3.10
2022-09-11T19:11:45.537Z,3.83
2022-09-11T19:14:15.692Z,4.25
2022-09-11T19:16:46.396Z,3.30
2022-09-11T19:19:18.588Z,3.47
2022-09-11T19:21:48.301Z,2.90
2022-09-11T19:24:19.251Z,3.03
2022-09-11T19:26:50.271Z,3.42
2022-09-11T19:29:23.112Z,4.25
2022-09-11T19:31:55.504Z,4.32
2022-09-11T19:34:34.986Z,4.95
2022-09-11T19:37:08.086Z,4.57
2022-09-11T19:39:40.847Z,3.40
2022-09-11T19:42:12.901Z,3.38
2022-09-11T19:44:43.701Z,3.15
2022-09-11T19:47:17.134Z,3.53
2022-09-11T19:49:51.312Z,2.50
2022-09-11T19:52:22.668Z,2.40
2022-09-11T19:54:50.048Z,2.22
2022-09-11T19:57:21.756Z,2.80
2022-09-11T19:59:51.964Z,3.35
2022-09-11T20:02:19.531Z,3.50
2022-09-11T20:04:51.913Z,2.42
2022-09-11T20:07:23.884Z,2.30
2022-09-11T20:09:52.645Z,2.20
2022-09-11T20:12:26.039Z,4.43
2022-09-11T20:14:56.044Z,2.35
2022-09-11T20:17:25.496Z,2.22
2022-09-11T20:19:57.063Z,2.55
2022-09-11T20:22:27.262Z,1.92
2022-09-11T20:25:07.615Z,2.20
2022-09-11T20:27:37.565Z,2.10
2022-09-11T20:30:09.005Z,1.77
2022-09-11T20:32:42.400Z,2.47
2022-09-11T20:35:13.636Z,2.38
2022-09-11T20:37:46.512Z,2.10
2022-09-11T20:40:15.133Z,2.25
2022-09-11T20:42:43.223Z,1.88
2022-09-11T20:45:14.649Z,2.10
2022-09-11T20:47:43.519Z,1.92
2022-09-11T20:50:13.621Z,1.70
2022-09-11T20:52:55.278Z,1.48
2022-09-11T20:55:36.107Z,2.15
2022-09-11T20:58:12.084Z,1.95
2022-09-11T21:01:10.968Z,1.58
2022-09-11T21:03:51.917Z,1.15
2022-09-11T21:06:28.729Z,1.55
2022-09-11T21:09:01.474Z,1.52
2022-09-11T21:11:35.200Z,1.65
2022-09-11T21:14:10.865Z,2.08
2022-09-11T21:16:45.769Z,1.48
2022-09-11T21:19:18.194Z,1.67
2022-09-11T21:21:49.826Z,1.92
2022-09-11T21:24:21.131Z,1.95
2022-09-11T21:26:51.786Z,1.80
2022-09-11T21:29:22.477Z,1.70
2022-09-11T21:31:57.036Z,1.65
2022-09-11T21:36:57.706Z,2.20
2022-09-11T21:39:29.855Z,1.95
2022-09-11T21:41:59.646Z,1.90
2022-09-11T21:44:30.625Z,1.45
2022-09-11T21:47:06.910Z,1.42
2022-09-11T21:52:09.279Z,1.63
2022-09-11T21:54:40.410Z,1.52
2022-09-11T21:57:13.472Z,1.50
2022-09-11T21:59:48.094Z,1.30
2022-09-11T22:02:40.076Z,1.10
2022-09-11T22:05:16.089Z,1.25
2022-09-11T22:07:49.192Z,1.50
2022-09-11T22:10:19.020Z,1.27
2022-09-11T22:12:50.707Z,1.27
2022-09-11T22:15:23.333Z,1.00
2022-09-11T22:17:57.746Z,1.38
2022-09-11T22:20:30.376Z,1.45
2022-09-11T22:23:05.933Z,1.15
2022-09-11T22:25:38.622Z,1.42
2022-09-11T22:28:09.849Z,1.70
2022-09-11T22:30:45.485Z,1.38
2022-09-11T22:33:21.629Z,1.40
2022-09-11T22:35:52.513Z,1.25
2022-09-11T22:38:21.810Z,1.55
2022-09-11T22:40:55.685Z,1.25
2022-09-11T22:43:24.555Z,1.20
2022-09-11T22:45:57.551Z,1.20
2022-09-11T22:48:31.486Z,1.25
2022-09-11T22:51:01.863Z,1.23
2022-09-11T22:53:32.543Z,1.20
2022-09-11T22:56:02.915Z,1.02
2022-09-11T22:58:31.384Z,1.40
2022-09-11T23:01:05.428Z,1.00
2022-09-11T23:03:33.807Z,1.15
2022-09-11T23:09:10.912Z,1.00
2022-09-11T23:11:43.291Z,1.17
2022-09-11T23:14:14.931Z,1.20
2022-09-11T23:16:45.796Z,0.90
2022-09-11T23:19:24.993Z,1.48
2022-09-11T23:21:58.064Z,1.08
2022-09-11T23:24:29.301Z,0.82
2022-09-11T23:26:59.618Z,1.02
2022-09-11T23:29:33.801Z,0.70
2022-09-11T23:32:02.639Z,1.05
2022-09-11T23:34:35.061Z,1.10
2022-09-11T23:37:05.873Z,1.10
2022-09-11T23:39:38.452Z,1.63
2022-09-11T23:42:08.882Z,0.98
2022-09-11T23:44:41.740Z,1.00
2022-09-11T23:47:12.455Z,0.85
2022-09-11T23:49:47.224Z,1.25
2022-09-11T23:52:18.751Z,1.50
2022-09-11T23:54:48.532Z,1.75
2022-09-11T23:57:20.244Z,0.90
2022-09-11T23:59:52.315Z,1.50
